sensor_id;sensor_type;location;lat;lon;timestamp;noise_LAeq;noise_LA_min;noise_LA_max;noise_LA01;noise_LA95
36217;Laerm;22259;48.792;8.964;2023-08-12T00:00:31;44.04;40.82;47.90;;
36217;Laerm;22259;48.792;8.964;2023-08-12T00:02:56;44.18;41.50;51.53;;
36217;Laerm;22259;48.792;8.964;2023-08-12T00:05:22;43.37;40.57;47.11;;
36217;Laerm;22259;48.792;8.964;2023-08-12T00:07:48;43.15;40.28;45.27;;
36217;Laerm;22259;48.792;8.964;2023-08-12T00:10:13;43.02;40.53;48.16;;
36217;Laerm;22259;48.792;8.964;2023-08-12T00:12:39;42.99;39.87;47.26;;
36217;Laerm;22259;48.792;8.964;2023-08-12T00:15:05;53.90;40.43;71.26;;
36217;Laerm;22259;48.792;8.964;2023-08-12T00:17:32;42.83;40.11;45.41;;
36217;Laerm;22259;48.792;8.964;2023-08-12T00:19:57;45.19;40.03;63.06;;
36217;Laerm;22259;48.792;8.964;2023-08-12T00:22:22;43.37;40.87;51.73;;
36217;Laerm;22259;48.792;8.964;2023-08-12T00:24:48;43.36;39.89;46.65;;
36217;Laerm;22259;48.792;8.964;2023-08-12T00:27:13;43.03;40.36;46.44;;
36217;Laerm;22259;48.792;8.964;2023-08-12T00:29:39;43.03;40.41;45.42;;
36217;Laerm;22259;48.792;8.964;2023-08-12T00:32:04;42.80;40.76;46.13;;
36217;Laerm;22259;48.792;8.964;2023-08-12T00:34:30;42.43;39.97;44.60;;
36217;Laerm;22259;48.792;8.964;2023-08-12T00:36:55;42.92;39.55;45.24;;
36217;Laerm;22259;48.792;8.964;2023-08-12T00:39:20;43.39;40.67;46.43;;
36217;Laerm;22259;48.792;8.964;2023-08-12T00:41:46;43.36;40.97;45.34;;
36217;Laerm;22259;48.792;8.964;2023-08-12T00:44:12;42.83;40.64;46.83;;
36217;Laerm;22259;48.792;8.964;2023-08-12T00:46:40;52.43;40.73;69.12;;
36217;Laerm;22259;48.792;8.964;2023-08-12T00:49:06;43.73;40.85;48.62;;
36217;Laerm;22259;48.792;8.964;2023-08-12T00:51:31;42.75;40.71;44.73;;
36217;Laerm;22259;48.792;8.964;2023-08-12T00:53:57;42.41;39.52;44.16;;
36217;Laerm;22259;48.792;8.964;2023-08-12T00:56:23;42.78;40.69;47.37;;
36217;Laerm;22259;48.792;8.964;2023-08-12T00:58:49;42.41;40.05;44.61;;
36217;Laerm;22259;48.792;8.964;2023-08-12T01:01:14;42.50;39.64;44.32;;
36217;Laerm;22259;48.792;8.964;2023-08-12T01:03:40;43.05;40.43;46.59;;
36217;Laerm;22259;48.792;8.964;2023-08-12T01:06:06;43.41;41.00;46.01;;
36217;Laerm;22259;48.792;8.964;2023-08-12T01:08:32;51.50;40.73;66.86;;
36217;Laerm;22259;48.792;8.964;2023-08-12T01:12:01;43.86;40.55;61.06;;
36217;Laerm;22259;48.792;8.964;2023-08-12T01:14:38;43.24;40.31;49.79;;
36217;Laerm;22259;48.792;8.964;2023-08-12T01:17:08;47.80;38.85;62.01;;
36217;Laerm;22259;48.792;8.964;2023-08-12T01:19:35;42.65;40.03;44.94;;
36217;Laerm;22259;48.792;8.964;2023-08-12T01:22:02;42.74;39.89;45.14;;
36217;Laerm;22259;48.792;8.964;2023-08-12T01:25:01;42.12;39.73;44.17;;
36217;Laerm;22259;48.792;8.964;2023-08-12T01:27:27;42.22;39.92;44.36;;
36217;Laerm;22259;48.792;8.964;2023-08-12T01:29:52;41.84;39.31;43.87;;
36217;Laerm;22259;48.792;8.964;2023-08-12T01:32:25;41.81;39.18;43.90;;
36217;Laerm;22259;48.792;8.964;2023-08-12T01:35:03;41.82;39.40;44.52;;
36217;Laerm;22259;48.792;8.964;2023-08-12T01:37:31;42.00;38.92;44.11;;
36217;Laerm;22259;48.792;8.964;2023-08-12T01:39:58;41.44;38.25;43.76;;
36217;Laerm;22259;48.792;8.964;2023-08-12T01:42:24;42.13;39.58;47.90;;
36217;Laerm;22259;48.792;8.964;2023-08-12T01:44:50;41.90;39.31;44.27;;
36217;Laerm;22259;48.792;8.964;2023-08-12T01:47:15;50.95;39.18;65.65;;
36217;Laerm;22259;48.792;8.964;2023-08-12T01:49:41;41.77;39.18;44.52;;
36217;Laerm;22259;48.792;8.964;2023-08-12T01:52:06;42.17;39.89;44.50;;
36217;Laerm;22259;48.792;8.964;2023-08-12T01:54:31;41.62;38.92;44.24;;
36217;Laerm;22259;48.792;8.964;2023-08-12T01:57:02;42.55;39.21;46.18;;
36217;Laerm;22259;48.792;8.964;2023-08-12T01:59:30;42.69;39.67;44.95;;
36217;Laerm;22259;48.792;8.964;2023-08-12T02:01:55;42.26;40.03;46.90;;
36217;Laerm;22259;48.792;8.964;2023-08-12T02:04:21;42.32;39.34;46.30;;
36217;Laerm;22259;48.792;8.964;2023-08-12T02:06:46;51.47;39.73;66.33;;
36217;Laerm;22259;48.792;8.964;2023-08-12T02:09:12;41.76;39.58;44.40;;
36217;Laerm;22259;48.792;8.964;2023-08-12T02:11:37;42.47;39.52;48.02;;
36217;Laerm;22259;48.792;8.964;2023-08-12T02:14:03;42.53;39.75;47.42;;
36217;Laerm;22259;48.792;8.964;2023-08-12T02:16:28;50.94;39.67;69.27;;
36217;Laerm;22259;48.792;8.964;2023-08-12T02:18:53;42.97;39.95;47.38;;
36217;Laerm;22259;48.792;8.964;2023-08-12T02:21:19;42.73;39.92;45.27;;
36217;Laerm;22259;48.792;8.964;2023-08-12T02:23:44;42.96;39.43;47.29;;
36217;Laerm;22259;48.792;8.964;2023-08-12T02:26:10;42.83;40.08;46.81;;
36217;Laerm;22259;48.792;8.964;2023-08-12T02:28:35;43.14;40.31;47.69;;
36217;Laerm;22259;48.792;8.964;2023-08-12T02:31:01;42.93;39.84;48.75;;
36217;Laerm;22259;48.792;8.964;2023-08-12T02:33:26;42.06;39.49;46.29;;
36217;Laerm;22259;48.792;8.964;2023-08-12T02:35:54;42.37;39.87;44.63;;
36217;Laerm;22259;48.792;8.964;2023-08-12T02:38:20;42.41;39.81;48.20;;
36217;Laerm;22259;48.792;8.964;2023-08-12T02:40:49;42.22;39.67;44.41;;
36217;Laerm;22259;48.792;8.964;2023-08-12T02:43:14;42.31;39.02;46.56;;
36217;Laerm;22259;48.792;8.964;2023-08-12T02:45:40;42.74;39.92;45.20;;
36217;Laerm;22259;48.792;8.964;2023-08-12T02:48:05;52.33;39.78;70.38;;
36217;Laerm;22259;48.792;8.964;2023-08-12T02:50:31;42.57;39.28;46.09;;
36217;Laerm;22259;48.792;8.964;2023-08-12T02:52:56;42.20;39.34;49.19;;
36217;Laerm;22259;48.792;8.964;2023-08-12T02:55:21;42.14;39.55;44.14;;
36217;Laerm;22259;48.792;8.964;2023-08-12T02:57:47;42.09;39.49;44.49;;
36217;Laerm;22259;48.792;8.964;2023-08-12T03:00:12;41.90;38.78;45.44;;
36217;Laerm;22259;48.792;8.964;2023-08-12T03:02:38;41.66;39.40;43.81;;
36217;Laerm;22259;48.792;8.964;2023-08-12T03:05:03;42.03;39.64;44.28;;
36217;Laerm;22259;48.792;8.964;2023-08-12T03:07:29;42.13;39.70;44.57;;
36217;Laerm;22259;48.792;8.964;2023-08-12T03:09:54;43.27;40.03;47.20;;
36217;Laerm;22259;48.792;8.964;2023-08-12T03:12:19;42.93;40.26;46.30;;
36217;Laerm;22259;48.792;8.964;2023-08-12T03:14:45;47.98;40.11;64.40;;
36217;Laerm;22259;48.792;8.964;2023-08-12T03:17:10;44.19;41.50;55.28;;
36217;Laerm;22259;48.792;8.964;2023-08-12T03:19:36;44.65;40.76;58.27;;
36217;Laerm;22259;48.792;8.964;2023-08-12T03:22:01;44.09;40.48;50.90;;
36217;Laerm;22259;48.792;8.964;2023-08-12T03:24:26;44.65;41.02;52.85;;
36217;Laerm;22259;48.792;8.964;2023-08-12T03:26:52;46.13;41.59;57.31;;
36217;Laerm;22259;48.792;8.964;2023-08-12T03:29:17;44.32;39.89;51.90;;
36217;Laerm;22259;48.792;8.964;2023-08-12T03:31:42;42.99;39.92;47.68;;
36217;Laerm;22259;48.792;8.964;2023-08-12T03:34:08;42.98;39.49;45.93;;
36217;Laerm;22259;48.792;8.964;2023-08-12T03:36:33;42.94;39.73;45.67;;
36217;Laerm;22259;48.792;8.964;2023-08-12T03:38:59;43.63;39.89;53.08;;
36217;Laerm;22259;48.792;8.964;2023-08-12T03:41:24;44.63;40.41;55.51;;
36217;Laerm;22259;48.792;8.964;2023-08-12T03:43:49;43.77;40.76;50.60;;
36217;Laerm;22259;48.792;8.964;2023-08-12T03:46:15;51.72;41.40;68.58;;
36217;Laerm;22259;48.792;8.964;2023-08-12T03:48:41;43.98;41.14;52.16;;
36217;Laerm;22259;48.792;8.964;2023-08-12T03:51:06;44.20;41.22;51.93;;
36217;Laerm;22259;48.792;8.964;2023-08-12T03:53:32;44.12;40.60;73.25;;
36217;Laerm;22259;48.792;8.964;2023-08-12T03:55:57;42.44;39.84;44.87;;
36217;Laerm;22259;48.792;8.964;2023-08-12T03:58:22;42.13;38.95;44.47;;
36217;Laerm;22259;48.792;8.964;2023-08-12T04:00:48;42.57;40.16;47.57;;
36217;Laerm;22259;48.792;8.964;2023-08-12T04:03:13;42.50;39.67;44.92;;
36217;Laerm;22259;48.792;8.964;2023-08-12T04:05:46;42.37;39.61;44.37;;
36217;Laerm;22259;48.792;8.964;2023-08-12T04:08:11;43.11;40.18;62.18;;
36217;Laerm;22259;48.792;8.964;2023-08-12T04:10:37;42.73;40.21;47.95;;
36217;Laerm;22259;48.792;8.964;2023-08-12T04:13:02;44.08;41.22;55.63;;
36217;Laerm;22259;48.792;8.964;2023-08-12T04:15:28;51.04;40.21;68.11;;
36217;Laerm;22259;48.792;8.964;2023-08-12T04:17:53;47.96;41.42;63.30;;
36217;Laerm;22259;48.792;8.964;2023-08-12T04:20:18;44.64;41.20;50.01;;
36217;Laerm;22259;48.792;8.964;2023-08-12T04:22:44;44.15;41.48;51.14;;
36217;Laerm;22259;48.792;8.964;2023-08-12T04:25:09;43.73;41.00;52.44;;
36217;Laerm;22259;48.792;8.964;2023-08-12T04:27:34;43.88;41.20;47.14;;
36217;Laerm;22259;48.792;8.964;2023-08-12T04:30:00;45.70;42.50;60.02;;
36217;Laerm;22259;48.792;8.964;2023-08-12T04:32:25;46.29;42.19;58.07;;
36217;Laerm;22259;48.792;8.964;2023-08-12T04:34:51;45.62;42.37;60.73;;
36217;Laerm;22259;48.792;8.964;2023-08-12T04:37:16;44.25;42.06;51.24;;
36217;Laerm;22259;48.792;8.964;2023-08-12T04:39:41;45.37;42.65;52.02;;
36217;Laerm;22259;48.792;8.964;2023-08-12T04:42:07;45.21;41.68;58.65;;
36217;Laerm;22259;48.792;8.964;2023-08-12T04:44:33;53.03;42.22;78.07;;
36217;Laerm;22259;48.792;8.964;2023-08-12T04:46:58;49.53;42.38;68.93;;
36217;Laerm;22259;48.792;8.964;2023-08-12T04:49:23;51.81;41.82;83.66;;
36217;Laerm;22259;48.792;8.964;2023-08-12T04:51:51;53.92;42.42;88.66;;
36217;Laerm;22259;48.792;8.964;2023-08-12T04:54:16;46.58;40.87;71.35;;
36217;Laerm;22259;48.792;8.964;2023-08-12T04:56:42;55.70;42.33;75.52;;
36217;Laerm;22259;48.792;8.964;2023-08-12T04:59:07;45.81;42.44;51.62;;
36217;Laerm;22259;48.792;8.964;2023-08-12T05:01:33;44.04;40.53;55.99;;
36217;Laerm;22259;48.792;8.964;2023-08-12T05:03:59;43.58;40.53;54.59;;
36217;Laerm;22259;48.792;8.964;2023-08-12T05:06:24;43.53;39.52;52.28;;
36217;Laerm;22259;48.792;8.964;2023-08-12T05:08:52;43.73;39.70;53.76;;
36217;Laerm;22259;48.792;8.964;2023-08-12T05:11:18;45.15;41.10;60.11;;
36217;Laerm;22259;48.792;8.964;2023-08-12T05:13:43;44.11;41.18;54.39;;
36217;Laerm;22259;48.792;8.964;2023-08-12T05:16:08;55.57;41.14;88.90;;
36217;Laerm;22259;48.792;8.964;2023-08-12T05:18:34;59.10;42.66;86.15;;
36217;Laerm;22259;48.792;8.964;2023-08-12T05:20:59;51.57;41.68;77.30;;
36217;Laerm;22259;48.792;8.964;2023-08-12T05:23:25;44.27;41.91;53.80;;
36217;Laerm;22259;48.792;8.964;2023-08-12T05:25:50;43.91;41.16;65.31;;
36217;Laerm;22259;48.792;8.964;2023-08-12T05:28:15;44.21;40.55;72.99;;
36217;Laerm;22259;48.792;8.964;2023-08-12T05:30:41;46.70;40.00;76.59;;
36217;Laerm;22259;48.792;8.964;2023-08-12T05:33:06;43.45;40.41;60.42;;
36217;Laerm;22259;48.792;8.964;2023-08-12T05:35:35;45.44;40.00;56.33;;
36217;Laerm;22259;48.792;8.964;2023-08-12T05:38:00;45.28;40.21;57.78;;
36217;Laerm;22259;48.792;8.964;2023-08-12T05:40:26;56.78;40.31;74.20;;
36217;Laerm;22259;48.792;8.964;2023-08-12T05:42:51;42.83;39.87;47.06;;
36217;Laerm;22259;48.792;8.964;2023-08-12T05:45:17;53.08;40.31;70.56;;
36217;Laerm;22259;48.792;8.964;2023-08-12T05:47:42;49.90;40.33;74.33;;
36217;Laerm;22259;48.792;8.964;2023-08-12T05:50:08;44.12;40.55;50.04;;
36217;Laerm;22259;48.792;8.964;2023-08-12T05:52:33;58.24;42.24;80.12;;
36217;Laerm;22259;48.792;8.964;2023-08-12T05:54:59;49.41;42.01;81.07;;
36217;Laerm;22259;48.792;8.964;2023-08-12T05:57:24;43.25;40.64;54.62;;
36217;Laerm;22259;48.792;8.964;2023-08-12T05:59:49;44.08;40.21;57.64;;
36217;Laerm;22259;48.792;8.964;2023-08-12T06:02:15;44.03;41.51;51.34;;
36217;Laerm;22259;48.792;8.964;2023-08-12T06:04:40;43.61;40.71;54.08;;
36217;Laerm;22259;48.792;8.964;2023-08-12T06:07:06;44.17;40.64;61.71;;
36217;Laerm;22259;48.792;8.964;2023-08-12T06:09:31;43.73;40.46;59.62;;
36217;Laerm;22259;48.792;8.964;2023-08-12T06:11:56;43.23;40.69;53.76;;
36217;Laerm;22259;48.792;8.964;2023-08-12T06:14:22;43.06;40.71;46.10;;
36217;Laerm;22259;48.792;8.964;2023-08-12T06:16:47;53.89;41.26;70.07;;
36217;Laerm;22259;48.792;8.964;2023-08-12T06:19:12;49.21;40.33;64.75;;
36217;Laerm;22259;48.792;8.964;2023-08-12T06:21:38;42.98;40.62;57.50;;
36217;Laerm;22259;48.792;8.964;2023-08-12T06:24:03;59.96;41.36;78.13;;
36217;Laerm;22259;48.792;8.964;2023-08-12T06:26:29;43.06;40.78;45.07;;
36217;Laerm;22259;48.792;8.964;2023-08-12T06:28:54;43.38;40.80;55.28;;
36217;Laerm;22259;48.792;8.964;2023-08-12T06:31:20;56.56;40.31;74.13;;
36217;Laerm;22259;48.792;8.964;2023-08-12T06:33:45;42.40;39.70;53.65;;
36217;Laerm;22259;48.792;8.964;2023-08-12T06:36:11;42.58;40.03;52.79;;
36217;Laerm;22259;48.792;8.964;2023-08-12T06:38:36;43.25;40.55;48.53;;
36217;Laerm;22259;48.792;8.964;2023-08-12T06:41:01;43.16;40.80;47.99;;
36217;Laerm;22259;48.792;8.964;2023-08-12T06:43:27;42.85;40.11;54.73;;
36217;Laerm;22259;48.792;8.964;2023-08-12T06:45:52;52.49;40.18;69.12;;
36217;Laerm;22259;48.792;8.964;2023-08-12T06:48:17;51.55;40.31;68.10;;
36217;Laerm;22259;48.792;8.964;2023-08-12T06:50:43;47.50;40.38;71.98;;
36217;Laerm;22259;48.792;8.964;2023-08-12T06:53:08;42.26;39.55;47.66;;
36217;Laerm;22259;48.792;8.964;2023-08-12T06:55:34;42.71;39.64;47.24;;
36217;Laerm;22259;48.792;8.964;2023-08-12T06:57:59;43.41;40.43;52.91;;
36217;Laerm;22259;48.792;8.964;2023-08-12T07:00:25;52.92;40.36;70.18;;
36217;Laerm;22259;48.792;8.964;2023-08-12T07:02:50;51.61;39.81;70.10;;
36217;Laerm;22259;48.792;8.964;2023-08-12T07:05:16;47.32;40.08;65.80;;
36217;Laerm;22259;48.792;8.964;2023-08-12T07:07:41;43.46;39.95;64.92;;
36217;Laerm;22259;48.792;8.964;2023-08-12T07:10:07;56.23;41.08;71.62;;
36217;Laerm;22259;48.792;8.964;2023-08-12T07:12:32;42.87;40.00;55.66;;
36217;Laerm;22259;48.792;8.964;2023-08-12T07:14:58;53.40;40.13;70.79;;
36217;Laerm;22259;48.792;8.964;2023-08-12T07:17:23;44.06;40.78;53.32;;
36217;Laerm;22259;48.792;8.964;2023-08-12T07:19:49;48.97;39.58;64.33;;
36217;Laerm;22259;48.792;8.964;2023-08-12T07:22:14;42.42;39.89;47.06;;
36217;Laerm;22259;48.792;8.964;2023-08-12T07:24:41;42.80;39.73;47.92;;
36217;Laerm;22259;48.792;8.964;2023-08-12T07:27:06;43.10;40.03;50.09;;
36217;Laerm;22259;48.792;8.964;2023-08-12T07:29:32;49.77;39.61;69.86;;
36217;Laerm;22259;48.792;8.964;2023-08-12T07:31:57;56.06;39.73;72.41;;
36217;Laerm;22259;48.792;8.964;2023-08-12T07:34:22;42.84;39.58;49.49;;
36217;Laerm;22259;48.792;8.964;2023-08-12T07:36:48;42.04;38.49;54.41;;
36217;Laerm;22259;48.792;8.964;2023-08-12T07:39:13;41.52;38.70;51.42;;
36217;Laerm;22259;48.792;8.964;2023-08-12T07:41:38;42.38;39.05;50.26;;
36217;Laerm;22259;48.792;8.964;2023-08-12T07:44:04;42.44;39.25;49.23;;
36217;Laerm;22259;48.792;8.964;2023-08-12T07:46:29;53.09;39.02;69.03;;
36217;Laerm;22259;48.792;8.964;2023-08-12T07:48:55;51.85;39.41;67.31;;
36217;Laerm;22259;48.792;8.964;2023-08-12T07:51:21;42.68;38.88;47.87;;
36217;Laerm;22259;48.792;8.964;2023-08-12T07:53:46;41.82;39.21;48.67;;
36217;Laerm;22259;48.792;8.964;2023-08-12T07:56:11;46.35;39.21;66.28;;
36217;Laerm;22259;48.792;8.964;2023-08-12T07:58:37;41.68;39.18;46.01;;
36217;Laerm;22259;48.792;8.964;2023-08-12T08:01:02;55.19;39.25;73.65;;
36217;Laerm;22259;48.792;8.964;2023-08-12T08:03:29;41.75;39.08;52.38;;
36217;Laerm;22259;48.792;8.964;2023-08-12T08:05:55;42.01;39.02;49.26;;
36217;Laerm;22259;48.792;8.964;2023-08-12T08:08:20;42.21;39.18;45.98;;
36217;Laerm;22259;48.792;8.964;2023-08-12T08:10:46;41.03;38.41;44.31;;
36217;Laerm;22259;48.792;8.964;2023-08-12T08:13:11;41.23;38.67;46.23;;
36217;Laerm;22259;48.792;8.964;2023-08-12T08:15:37;52.83;39.15;70.72;;
36217;Laerm;22259;48.792;8.964;2023-08-12T08:18:03;50.83;39.40;65.07;;
36217;Laerm;22259;48.792;8.964;2023-08-12T08:20:29;41.21;38.63;43.91;;
36217;Laerm;22259;48.792;8.964;2023-08-12T08:22:55;41.18;38.25;58.25;;
36217;Laerm;22259;48.792;8.964;2023-08-12T08:25:20;41.16;38.85;44.97;;
36217;Laerm;22259;48.792;8.964;2023-08-12T08:27:45;41.50;38.74;55.23;;
36217;Laerm;22259;48.792;8.964;2023-08-12T08:30:11;54.77;39.31;72.93;;
36217;Laerm;22259;48.792;8.964;2023-08-12T08:32:36;54.39;39.34;74.94;;
36217;Laerm;22259;48.792;8.964;2023-08-12T08:35:02;43.14;39.43;50.50;;
36217;Laerm;22259;48.792;8.964;2023-08-12T08:37:27;42.16;39.18;53.61;;
36217;Laerm;22259;48.792;8.964;2023-08-12T08:39:53;49.86;39.15;65.72;;
36217;Laerm;22259;48.792;8.964;2023-08-12T08:42:18;60.34;39.37;76.60;;
36217;Laerm;22259;48.792;8.964;2023-08-12T08:44:45;42.97;39.28;57.68;;
36217;Laerm;22259;48.792;8.964;2023-08-12T08:47:10;55.60;39.64;70.30;;
36217;Laerm;22259;48.792;8.964;2023-08-12T08:49:37;41.62;38.78;54.45;;
36217;Laerm;22259;48.792;8.964;2023-08-12T08:52:03;41.55;38.98;45.20;;
36217;Laerm;22259;48.792;8.964;2023-08-12T08:54:29;41.85;38.95;58.44;;
36217;Laerm;22259;48.792;8.964;2023-08-12T08:56:54;41.58;38.63;57.88;;
36217;Laerm;22259;48.792;8.964;2023-08-12T08:59:20;43.26;39.15;62.82;;
36217;Laerm;22259;48.792;8.964;2023-08-12T09:01:46;55.33;38.98;71.48;;
36217;Laerm;22259;48.792;8.964;2023-08-12T09:04:13;41.90;38.85;46.20;;
36217;Laerm;22259;48.792;8.964;2023-08-12T09:06:40;41.45;39.08;51.09;;
36217;Laerm;22259;48.792;8.964;2023-08-12T09:09:08;45.54;38.99;59.42;;
36217;Laerm;22259;48.792;8.964;2023-08-12T09:11:35;41.93;39.15;58.30;;
36217;Laerm;22259;48.792;8.964;2023-08-12T09:14:03;46.06;39.12;58.44;;
36217;Laerm;22259;48.792;8.964;2023-08-12T09:16:28;53.07;38.71;71.44;;
36217;Laerm;22259;48.792;8.964;2023-08-12T09:18:55;51.40;38.21;64.35;;
36217;Laerm;22259;48.792;8.964;2023-08-12T09:21:20;41.89;39.18;58.31;;
36217;Laerm;22259;48.792;8.964;2023-08-12T09:23:46;42.92;39.52;48.53;;
36217;Laerm;22259;48.792;8.964;2023-08-12T09:26:15;42.35;39.55;49.40;;
36217;Laerm;22259;48.792;8.964;2023-08-12T09:28:44;54.69;40.55;72.22;;
36217;Laerm;22259;48.792;8.964;2023-08-12T09:31:30;55.96;39.55;72.41;;
36217;Laerm;22259;48.792;8.964;2023-08-12T09:34:06;43.65;39.21;55.78;;
36217;Laerm;22259;48.792;8.964;2023-08-12T09:36:34;41.83;39.18;62.92;;
36217;Laerm;22259;48.792;8.964;2023-08-12T09:39:00;42.07;39.84;53.33;;
36217;Laerm;22259;48.792;8.964;2023-08-12T09:41:28;41.90;39.34;49.81;;
36217;Laerm;22259;48.792;8.964;2023-08-12T09:43:55;42.26;39.70;55.97;;
36217;Laerm;22259;48.792;8.964;2023-08-12T09:46:21;55.20;40.76;69.99;;
36217;Laerm;22259;48.792;8.964;2023-08-12T09:48:49;57.83;41.48;75.93;;
36217;Laerm;22259;48.792;8.964;2023-08-12T09:51:14;43.10;39.64;67.94;;
36217;Laerm;22259;48.792;8.964;2023-08-12T09:53:41;42.91;40.13;57.74;;
36217;Laerm;22259;48.792;8.964;2023-08-12T09:56:07;42.31;40.05;54.35;;
36217;Laerm;22259;48.792;8.964;2023-08-12T09:58:33;44.48;39.78;64.19;;
36217;Laerm;22259;48.792;8.964;2023-08-12T10:01:02;56.70;40.71;73.85;;
36217;Laerm;22259;48.792;8.964;2023-08-12T10:03:28;53.79;41.68;72.30;;
36217;Laerm;22259;48.792;8.964;2023-08-12T10:05:54;44.01;40.76;54.47;;
36217;Laerm;22259;48.792;8.964;2023-08-12T10:08:19;43.25;40.43;53.83;;
36217;Laerm;22259;48.792;8.964;2023-08-12T10:10:45;43.74;40.48;49.48;;
36217;Laerm;22259;48.792;8.964;2023-08-12T10:13:10;43.86;40.80;51.66;;
36217;Laerm;22259;48.792;8.964;2023-08-12T10:15:37;54.65;40.21;72.23;;
36217;Laerm;22259;48.792;8.964;2023-08-12T10:18:03;52.82;40.11;66.99;;
36217;Laerm;22259;48.792;8.964;2023-08-12T10:20:30;44.92;40.18;70.37;;
36217;Laerm;22259;48.792;8.964;2023-08-12T10:22:57;42.67;38.71;54.66;;
36217;Laerm;22259;48.792;8.964;2023-08-12T10:25:24;43.38;39.97;58.07;;
36217;Laerm;22259;48.792;8.964;2023-08-12T10:27:50;41.82;38.71;44.48;;
36217;Laerm;22259;48.792;8.964;2023-08-12T10:30:15;55.19;40.48;74.47;;
36217;Laerm;22259;48.792;8.964;2023-08-12T10:32:41;55.01;40.05;73.34;;
36217;Laerm;22259;48.792;8.964;2023-08-12T10:35:06;42.40;39.49;46.42;;
36217;Laerm;22259;48.792;8.964;2023-08-12T10:37:33;46.62;39.34;61.11;;
36217;Laerm;22259;48.792;8.964;2023-08-12T10:40:02;44.21;40.31;62.97;;
36217;Laerm;22259;48.792;8.964;2023-08-12T10:42:48;42.41;39.89;50.93;;
36217;Laerm;22259;48.792;8.964;2023-08-12T10:45:15;53.57;40.97;71.38;;
36217;Laerm;22259;48.792;8.964;2023-08-12T10:47:41;53.17;40.31;68.34;;
36217;Laerm;22259;48.792;8.964;2023-08-12T10:50:16;44.23;40.48;57.45;;
36217;Laerm;22259;48.792;8.964;2023-08-12T10:52:41;42.24;39.58;49.77;;
36217;Laerm;22259;48.792;8.964;2023-08-12T10:55:15;44.08;40.13;57.00;;
36217;Laerm;22259;48.792;8.964;2023-08-12T10:57:41;43.91;40.26;56.64;;
36217;Laerm;22259;48.792;8.964;2023-08-12T11:00:10;52.88;40.53;69.14;;
36217;Laerm;22259;48.792;8.964;2023-08-12T11:02:36;52.43;40.93;71.91;;
36217;Laerm;22259;48.792;8.964;2023-08-12T11:05:09;44.21;42.19;60.24;;
36217;Laerm;22259;48.792;8.964;2023-08-12T11:07:48;45.23;42.96;54.45;;
36217;Laerm;22259;48.792;8.964;2023-08-12T11:10:21;44.65;42.19;52.03;;
36217;Laerm;22259;48.792;8.964;2023-08-12T11:12:48;45.12;42.43;54.44;;
36217;Laerm;22259;48.792;8.964;2023-08-12T11:15:14;54.41;43.28;69.36;;
36217;Laerm;22259;48.792;8.964;2023-08-12T11:17:40;53.58;43.18;76.96;;
36217;Laerm;22259;48.792;8.964;2023-08-12T11:20:06;45.57;42.98;67.93;;
36217;Laerm;22259;48.792;8.964;2023-08-12T11:22:34;46.10;43.44;57.39;;
36217;Laerm;22259;48.792;8.964;2023-08-12T11:25:01;46.89;43.87;68.20;;
36217;Laerm;22259;48.792;8.964;2023-08-12T11:27:27;48.03;43.48;69.48;;
36217;Laerm;22259;48.792;8.964;2023-08-12T11:29:52;55.33;44.17;72.08;;
36217;Laerm;22259;48.792;8.964;2023-08-12T11:32:18;54.61;44.22;68.77;;
36217;Laerm;22259;48.792;8.964;2023-08-12T11:34:44;48.33;44.11;63.49;;
36217;Laerm;22259;48.792;8.964;2023-08-12T11:37:09;47.89;43.58;65.37;;
36217;Laerm;22259;48.792;8.964;2023-08-12T11:39:34;45.94;43.37;61.77;;
36217;Laerm;22259;48.792;8.964;2023-08-12T11:42:00;45.74;43.18;54.17;;
36217;Laerm;22259;48.792;8.964;2023-08-12T11:44:26;48.96;43.29;67.97;;
36217;Laerm;22259;48.792;8.964;2023-08-12T11:46:51;56.99;43.39;85.47;;
36217;Laerm;22259;48.792;8.964;2023-08-12T11:49:17;50.48;44.58;62.36;;
36217;Laerm;22259;48.792;8.964;2023-08-12T11:51:43;47.28;43.64;57.43;;
36217;Laerm;22259;48.792;8.964;2023-08-12T11:54:10;46.96;43.10;63.26;;
36217;Laerm;22259;48.792;8.964;2023-08-12T11:56:36;44.99;42.03;59.23;;
36217;Laerm;22259;48.792;8.964;2023-08-12T11:59:02;45.60;41.16;60.23;;
36217;Laerm;22259;48.792;8.964;2023-08-12T12:01:27;55.91;41.89;70.39;;
36217;Laerm;22259;48.792;8.964;2023-08-12T12:03:53;61.47;41.20;82.18;;
36217;Laerm;22259;48.792;8.964;2023-08-12T12:06:29;55.09;41.93;80.20;;
36217;Laerm;22259;48.792;8.964;2023-08-12T12:08:54;82.47;42.50;112.92;;
36217;Laerm;22259;48.792;8.964;2023-08-12T12:11:20;71.33;58.17;90.45;;
36217;Laerm;22259;48.792;8.964;2023-08-12T12:13:45;73.25;61.94;97.24;;
36217;Laerm;22259;48.792;8.964;2023-08-12T12:16:12;66.61;50.36;92.31;;
36217;Laerm;22259;48.792;8.964;2023-08-12T12:18:38;55.47;45.13;72.17;;
36217;Laerm;22259;48.792;8.964;2023-08-12T12:21:03;52.02;44.08;66.31;;
36217;Laerm;22259;48.792;8.964;2023-08-12T12:23:29;52.56;43.54;66.49;;
36217;Laerm;22259;48.792;8.964;2023-08-12T12:25:59;51.63;42.68;68.40;;
36217;Laerm;22259;48.792;8.964;2023-08-12T12:28:24;50.43;41.75;67.95;;
36217;Laerm;22259;48.792;8.964;2023-08-12T12:30:49;56.31;42.74;73.01;;
36217;Laerm;22259;48.792;8.964;2023-08-12T12:33:15;54.88;46.03;69.70;;
36217;Laerm;22259;48.792;8.964;2023-08-12T12:35:40;52.24;46.27;66.53;;
36217;Laerm;22259;48.792;8.964;2023-08-12T12:38:06;49.13;44.51;71.44;;
36217;Laerm;22259;48.792;8.964;2023-08-12T12:40:31;51.80;47.39;68.17;;
36217;Laerm;22259;48.792;8.964;2023-08-12T12:42:56;51.80;47.01;70.41;;
36217;Laerm;22259;48.792;8.964;2023-08-12T12:45:23;54.61;46.39;69.86;;
36217;Laerm;22259;48.792;8.964;2023-08-12T12:47:48;48.69;43.01;61.83;;
36217;Laerm;22259;48.792;8.964;2023-08-12T12:50:14;52.98;41.72;69.16;;
36217;Laerm;22259;48.792;8.964;2023-08-12T12:52:39;45.70;41.18;62.09;;
36217;Laerm;22259;48.792;8.964;2023-08-12T12:55:05;44.99;40.62;64.03;;
36217;Laerm;22259;48.792;8.964;2023-08-12T12:57:30;44.72;40.67;59.90;;
36217;Laerm;22259;48.792;8.964;2023-08-12T12:59:55;54.11;40.71;72.70;;
36217;Laerm;22259;48.792;8.964;2023-08-12T13:02:21;52.81;40.18;70.88;;
36217;Laerm;22259;48.792;8.964;2023-08-12T13:04:46;45.44;40.80;61.08;;
36217;Laerm;22259;48.792;8.964;2023-08-12T13:07:12;45.13;40.57;60.82;;
36217;Laerm;22259;48.792;8.964;2023-08-12T13:09:37;52.43;40.03;69.94;;
36217;Laerm;22259;48.792;8.964;2023-08-12T13:12:03;54.75;41.16;68.52;;
36217;Laerm;22259;48.792;8.964;2023-08-12T13:14:28;46.02;40.64;64.40;;
36217;Laerm;22259;48.792;8.964;2023-08-12T13:16:55;55.55;40.41;70.02;;
36217;Laerm;22259;48.792;8.964;2023-08-12T13:19:20;44.66;41.04;62.19;;
36217;Laerm;22259;48.792;8.964;2023-08-12T13:21:46;43.83;40.93;60.72;;
36217;Laerm;22259;48.792;8.964;2023-08-12T13:24:11;43.57;40.08;61.11;;
36217;Laerm;22259;48.792;8.964;2023-08-12T13:26:37;43.14;40.18;59.49;;
36217;Laerm;22259;48.792;8.964;2023-08-12T13:29:02;43.24;40.11;58.69;;
36217;Laerm;22259;48.792;8.964;2023-08-12T13:31:28;53.18;39.64;69.03;;
36217;Laerm;22259;48.792;8.964;2023-08-12T13:33:54;50.15;39.55;66.51;;
36217;Laerm;22259;48.792;8.964;2023-08-12T13:36:19;49.18;39.92;71.42;;
36217;Laerm;22259;48.792;8.964;2023-08-12T13:38:44;43.70;40.60;60.98;;